Flight Track Log - Related Links

Times and Time Zones

All times are in EDT time to prevent confusion due to time zone crossing. See the SWA35 flight status page for this flight to view local times or setup timezone preferences in your user account.

Time Position Orientation Groundspeed Altitude Reporting Facility
EDT Latitude Longitude Course Direction KTS MPH feet Rate Location/Type
Tue 02:33:45 PM 35.3478 -97.5842 165° South 173 199 3,600  Level Fort Worth Center
Tue 02:34:46 PM 35.2936 -97.5483 152° Southeast 246 283 6,500 3,186 Climbing Fort Worth Center
Tue 02:36:10 PM 35.2144 -97.4492 134° Southeast 295 339 11,300 3,583 Climbing Fort Worth Center
Tue 02:37:10 PM 35.1414 -97.3703 139° Southeast 323 372 15,100 3,750 Climbing Fort Worth Center
Tue 02:38:10 PM 35.0703 -97.2892 137° Southeast 337 388 18,800 1,950 Climbing Fort Worth Center
Tue 02:39:10 PM 34.9953 -97.2031 137° Southeast 355 409 19,000 100 Climbing Fort Worth Center
Tue 02:40:10 PM 34.9158 -97.1147 138° Southeast 372 428 19,000  Level Fort Worth Center
Tue 02:41:10 PM 34.8361 -97.0264 138° Southeast 379 436 19,000  Level Fort Worth Center
Tue 02:42:10 PM 34.7586 -96.9383 137° Southeast 379 436 19,000  Level Fort Worth Center
Tue 02:43:10 PM 34.6792 -96.8531 139° Southeast 384 442 19,000  Level Fort Worth Center
Tue 02:44:10 PM 34.5972 -96.7625 138° Southeast 384 442 19,000  Level Fort Worth Center
Tue 02:45:10 PM 34.5133 -96.6675 137° Southeast 389 448 19,000  Level Fort Worth Center
Tue 02:46:10 PM 34.4294 -96.5775 138° Southeast 394 453 19,000  Level Fort Worth Center
Tue 02:47:10 PM 34.3247 -96.5258 158° South 394 453 19,000 -100 Level Fort Worth Center
Tue 02:48:10 PM 34.2158 -96.4842 162° South 402 463 18,800 -550 Descending Fort Worth Center
Tue 02:49:10 PM 34.1028 -96.4478 165° South 413 475 17,900 -950 Descending Fort Worth Center
Tue 02:50:10 PM 33.9961 -96.4064 162° South 413 475 16,900 -1,000 Descending Fort Worth Center
Tue 02:51:10 PM 33.8914 -96.3700 164° South 402 463 15,900 -1,050 Descending Fort Worth Center
Tue 02:52:10 PM 33.7908 -96.3264 160° South 386 444 14,800 -1,850 Descending Fort Worth Center
Tue 02:53:10 PM 33.6989 -96.2950 164° South 386 444 12,200 -2,400 Descending Fort Worth Center
Tue 02:54:10 PM 33.5919 -96.2539 162° South 374 430 10,000 -1,100 Descending Fort Worth Center
Tue 02:55:10 PM 33.5064 -96.2600 183° South 338 389 10,000  Level Fort Worth Center
Tue 02:56:10 PM 33.4025 -96.2911 194° South 354 407 10,000  Level Fort Worth Center
Tue 02:57:10 PM 33.3358 -96.3119 195° South 307 353 10,000 -450 Level Fort Worth Center
Tue 02:58:10 PM 33.2589 -96.3453 200° South 273 314 9,100 -700 Descending Fort Worth Center
Tue 02:59:10 PM 33.2178 -96.4078 232° Southwest 257 296 8,600 -800 Descending Fort Worth Center
Tue 03:00:10 PM 33.1703 -96.4803 232° Southwest 265 305 7,500 -1,000 Descending Fort Worth Center
Tue 03:01:10 PM 33.1331 -96.5453 236° Southwest 265 305 6,600 -800 Descending Fort Worth Center
Tue 03:02:10 PM 33.0917 -96.6100 233° Southwest 260 299 5,900 -850 Descending Fort Worth Center
Tue 03:03:10 PM 33.0464 -96.6872 235° Southwest 260 299 4,900 -1,034 Descending Fort Worth Center
Tue 03:03:37 PM 33.0333 -96.7167 242° Southwest 260 299 4,400 -759 Descending Dallas / Fort Worth TRACON
Tue 03:04:37 PM 32.9833 -96.7833 228° Southwest 260 299 3,800 -750 Descending Dallas / Fort Worth TRACON
Tue 03:05:37 PM 32.9500 -96.8500 239° Southwest 252 290 2,900 -744 Descending Dallas / Fort Worth TRACON
Tue 03:06:38 PM 32.9000 -96.9000 220° Southwest 171 197 2,300 -900 Descending Dallas / Fort Worth TRACON
Tue 03:07:37 PM 32.8667 -96.8833 157° South 136 157 1,100 434 Descending Dallas / Fort Worth TRACON
Tue 03:09:10 PM 32.7925 -96.8844 181° South 154 177 3,400 1,484 Climbing Fort Worth Center

Login

Don't have an account? Register now (free) for customized features, flight alerts, and more!